createdAt,value
2019-02-02T00:02:01.093Z,96034.00
2019-02-02T00:04:31.532Z,96047.00
2019-02-02T00:07:01.987Z,96034.00
2019-02-02T00:09:33.147Z,96025.00
2019-02-02T00:12:03.090Z,96036.00
2019-02-02T00:14:33.223Z,96028.00
2019-02-02T00:17:03.600Z,96020.00
2019-02-02T00:19:34.537Z,96032.00
2019-02-02T00:22:05.837Z,96035.00
2019-02-02T00:24:36.405Z,96030.00
2019-02-02T00:27:08.309Z,96034.00
2019-02-02T00:29:38.640Z,96031.00
2019-02-02T00:32:10.032Z,96039.00
2019-02-02T00:34:41.150Z,96031.00
2019-02-02T00:37:12.163Z,96041.00
2019-02-02T00:39:41.891Z,96040.00
2019-02-02T00:42:12.099Z,96044.00
2019-02-02T00:44:42.750Z,96048.00
2019-02-02T00:47:12.609Z,96040.00
2019-02-02T00:49:43.373Z,96032.00
2019-02-02T00:52:13.448Z,96041.00
2019-02-02T00:54:43.925Z,96031.00
2019-02-02T00:57:13.700Z,96026.00
2019-02-02T00:59:44.805Z,96029.00
2019-02-02T01:02:15.154Z,96032.00
2019-02-02T01:04:45.300Z,96043.00
2019-02-02T01:07:15.484Z,96054.00
2019-02-02T01:09:45.942Z,96050.00
2019-02-02T01:12:16.656Z,96046.00
2019-02-02T01:14:46.828Z,96037.00
2019-02-02T01:17:17.641Z,96033.00
2019-02-02T01:19:48.172Z,96036.00
2019-02-02T01:22:18.741Z,96019.00
2019-02-02T01:24:48.954Z,96003.00
2019-02-02T01:27:19.074Z,96007.00
2019-02-02T01:29:49.371Z,96013.00
2019-02-02T01:32:19.181Z,96010.00
2019-02-02T01:34:49.744Z,96014.00
2019-02-02T01:37:20.255Z,96005.00
2019-02-02T01:39:50.290Z,96006.00
2019-02-02T01:42:20.740Z,96004.00
2019-02-02T01:44:52.045Z,96008.00
2019-02-02T01:47:23.574Z,96006.00
2019-02-02T01:49:53.885Z,96021.00
2019-02-02T01:52:23.943Z,96017.00
2019-02-02T01:54:54.502Z,96010.00
2019-02-02T01:57:24.443Z,96021.00
2019-02-02T01:59:55.156Z,96023.00
2019-02-02T02:02:25.343Z,96027.00
2019-02-02T02:04:56.182Z,96022.00
2019-02-02T02:07:26.246Z,96017.00
2019-02-02T02:09:56.711Z,96017.00
2019-02-02T02:12:26.990Z,96016.00
2019-02-02T02:14:57.147Z,96028.00
2019-02-02T02:17:27.294Z,96021.00
2019-02-02T02:19:57.322Z,96025.00
2019-02-02T02:22:27.881Z,96039.00
2019-02-02T02:24:58.084Z,96042.00
2019-02-02T02:27:28.243Z,96044.00
2019-02-02T02:29:58.671Z,96054.00
2019-02-02T02:32:29.133Z,96049.00
2019-02-02T02:34:59.570Z,96056.00
2019-02-02T02:37:29.330Z,96052.00
2019-02-02T02:39:59.619Z,96058.00
2019-02-02T02:42:30.196Z,96064.00
2019-02-02T02:45:00.434Z,96050.00
2019-02-02T02:47:30.908Z,96032.00
2019-02-02T02:50:00.903Z,96029.00
2019-02-02T02:52:31.292Z,96014.00
2019-02-02T02:55:01.536Z,96008.00
2019-02-02T02:57:32.128Z,95988.00
2019-02-02T03:00:02.569Z,95999.00
2019-02-02T03:02:33.166Z,96000.00
2019-02-02T03:05:03.066Z,96017.00
2019-02-02T03:07:33.204Z,96030.00
2019-02-02T03:10:03.423Z,96039.00
2019-02-02T03:12:33.495Z,96027.00
2019-02-02T03:15:04.265Z,96054.00
2019-02-02T03:17:34.386Z,96039.00
2019-02-02T03:20:04.725Z,96034.00
2019-02-02T03:22:34.605Z,96029.00
2019-02-02T03:25:04.788Z,96019.00
2019-02-02T03:27:35.198Z,96011.00
2019-02-02T03:30:05.925Z,96006.00
2019-02-02T03:32:36.559Z,95993.00
2019-02-02T03:35:07.282Z,96010.00
2019-02-02T03:37:37.780Z,96017.00
2019-02-02T03:40:10.293Z,96022.00
2019-02-02T03:42:40.563Z,96017.00
2019-02-02T03:45:11.130Z,96015.00
2019-02-02T03:47:41.260Z,96012.00
2019-02-02T03:50:11.883Z,96018.00
2019-02-02T03:52:42.221Z,96019.00
2019-02-02T03:55:13.157Z,96028.00
2019-02-02T03:57:43.137Z,96029.00
2019-02-02T04:00:15.520Z,96034.00
2019-02-02T04:02:45.992Z,96035.00
2019-02-02T04:05:17.893Z,96033.00
2019-02-02T04:07:48.056Z,96036.00
2019-02-02T04:10:18.368Z,96051.00
2019-02-02T04:12:48.422Z,96045.00
2019-02-02T04:15:18.597Z,96051.00
2019-02-02T04:17:49.107Z,96062.00
2019-02-02T04:20:20.805Z,96060.00
2019-02-02T04:22:50.969Z,96064.00
2019-02-02T04:25:22.040Z,96070.00
2019-02-02T04:27:51.846Z,96079.00
2019-02-02T04:30:23.726Z,96064.00
2019-02-02T04:32:53.935Z,96070.00
2019-02-02T04:35:23.718Z,96074.00
2019-02-02T04:37:54.609Z,96075.00
2019-02-02T04:40:24.917Z,96085.00
2019-02-02T04:42:54.937Z,96081.00
2019-02-02T04:45:24.856Z,96085.00
2019-02-02T04:47:54.868Z,96091.00
2019-02-02T04:50:27.849Z,96087.00
2019-02-02T04:52:57.799Z,96106.00
2019-02-02T04:55:28.170Z,96103.00
2019-02-02T04:57:57.952Z,96124.00
2019-02-02T05:00:27.573Z,96116.00
2019-02-02T05:02:59.653Z,96110.00
2019-02-02T05:05:29.183Z,96111.00
2019-02-02T05:07:58.960Z,96101.00
2019-02-02T05:10:29.124Z,96077.00
2019-02-02T05:12:59.435Z,96052.00
2019-02-02T05:15:29.617Z,96021.00
2019-02-02T05:18:08.643Z,96048.00
2019-02-02T05:20:38.430Z,96083.00
2019-02-02T05:23:08.638Z,96104.00
2019-02-02T05:25:38.655Z,96110.00
2019-02-02T05:28:11.745Z,96114.00
2019-02-02T05:30:41.510Z,96102.00
2019-02-02T05:33:11.317Z,96095.00
2019-02-02T05:35:47.498Z,96107.00
2019-02-02T05:38:17.643Z,96111.00
2019-02-02T05:40:48.355Z,96112.00
2019-02-02T05:43:21.055Z,96131.00
2019-02-02T05:45:51.245Z,96146.00
2019-02-02T05:48:20.848Z,96148.00
2019-02-02T05:50:51.104Z,96170.00
2019-02-02T05:53:21.064Z,96153.00
2019-02-02T05:55:51.685Z,96154.00
2019-02-02T05:58:24.375Z,96151.00
2019-02-02T06:00:57.308Z,96156.00
2019-02-02T06:03:27.210Z,96157.00
2019-02-02T06:05:57.669Z,96150.00
2019-02-02T06:08:28.452Z,96156.00
2019-02-02T06:10:58.830Z,96160.00
2019-02-02T06:13:29.102Z,96145.00
2019-02-02T06:15:59.711Z,96146.00
2019-02-02T06:18:29.899Z,96139.00
2019-02-02T06:21:00.065Z,96128.00
2019-02-02T06:23:29.726Z,96133.00
2019-02-02T06:25:59.953Z,96136.00
2019-02-02T06:28:29.687Z,96122.00
2019-02-02T06:31:00.207Z,96119.00
2019-02-02T06:33:30.089Z,96118.00
2019-02-02T06:35:59.778Z,96121.00
2019-02-02T06:38:29.836Z,96126.00
2019-02-02T06:41:00.995Z,96115.00
2019-02-02T06:43:30.830Z,96108.00
2019-02-02T06:46:01.192Z,96126.00
2019-02-02T06:48:32.698Z,96139.00
2019-02-02T06:51:02.397Z,96143.00
2019-02-02T06:53:32.546Z,96156.00
2019-02-02T06:56:02.545Z,96155.00
2019-02-02T06:58:32.347Z,96158.00
2019-02-02T07:01:02.064Z,96168.00
2019-02-02T07:03:31.855Z,96169.00
2019-02-02T07:06:01.641Z,96174.00
2019-02-02T07:08:31.509Z,96191.00
2019-02-02T07:11:01.572Z,96206.00
2019-02-02T07:13:31.206Z,96198.00
2019-02-02T07:16:02.186Z,96234.00
2019-02-02T07:18:31.870Z,96229.00
2019-02-02T07:21:01.702Z,96230.00
2019-02-02T07:23:31.239Z,96231.00
2019-02-02T07:26:02.243Z,96219.00
2019-02-02T07:28:31.952Z,96207.00
2019-02-02T07:31:01.688Z,96212.00
2019-02-02T07:33:31.890Z,96220.00
2019-02-02T07:36:01.818Z,96230.00
2019-02-02T07:38:31.576Z,96257.00
2019-02-02T07:41:01.317Z,96228.00
2019-02-02T07:43:31.268Z,96235.00
2019-02-02T07:46:01.048Z,96244.00
2019-02-02T07:48:31.274Z,96244.00
2019-02-02T07:51:00.998Z,96259.00
2019-02-02T07:53:30.777Z,96272.00
2019-02-02T07:56:00.755Z,96276.00
2019-02-02T07:58:30.432Z,96282.00
2019-02-02T08:01:00.442Z,96268.00
2019-02-02T08:03:30.548Z,96261.00
2019-02-02T08:06:00.366Z,96287.00
2019-02-02T08:08:30.085Z,96281.00
2019-02-02T08:11:00.006Z,96287.00
2019-02-02T08:13:29.823Z,96302.00
2019-02-02T08:15:59.717Z,96297.00
2019-02-02T08:18:29.544Z,96300.00
2019-02-02T08:20:59.855Z,96300.00
2019-02-02T08:23:29.784Z,96313.00
2019-02-02T08:25:59.704Z,96318.00
2019-02-02T08:28:29.589Z,96301.00
2019-02-02T08:30:59.524Z,96314.00
2019-02-02T08:33:30.321Z,96317.00
2019-02-02T08:36:00.182Z,96318.00
2019-02-02T08:38:30.405Z,96322.00
2019-02-02T08:41:00.246Z,96329.00
2019-02-02T08:43:29.828Z,96333.00
2019-02-02T08:45:59.555Z,96322.00
2019-02-02T08:48:29.598Z,96307.00
2019-02-02T08:50:59.381Z,96322.00
2019-02-02T08:53:29.066Z,96335.00
2019-02-02T08:55:58.687Z,96331.00
2019-02-02T08:58:28.510Z,96323.00
2019-02-02T09:01:04.086Z,96338.00
2019-02-02T09:03:29.783Z,96339.00
2019-02-02T09:05:59.552Z,96340.00
2019-02-02T09:08:29.422Z,96350.00
2019-02-02T09:10:59.204Z,96350.00
2019-02-02T09:13:29.088Z,96354.00
2019-02-02T09:15:59.245Z,96374.00
2019-02-02T09:18:29.772Z,96370.00
2019-02-02T09:20:59.511Z,96362.00
2019-02-02T09:23:29.526Z,96385.00
2019-02-02T09:25:59.220Z,96388.00
2019-02-02T09:28:29.332Z,96395.00
2019-02-02T09:30:59.448Z,96410.00
2019-02-02T09:33:29.784Z,96425.00
2019-02-02T09:35:59.652Z,96420.00
2019-02-02T09:38:29.509Z,96431.00
2019-02-02T09:40:59.509Z,96423.00
2019-02-02T09:43:29.410Z,96423.00
2019-02-02T09:45:59.664Z,96415.00
2019-02-02T09:48:29.371Z,96411.00
2019-02-02T09:50:59.446Z,96420.00
2019-02-02T09:53:29.008Z,96432.00
2019-02-02T09:55:58.948Z,96434.00
2019-02-02T09:58:28.825Z,96448.00
2019-02-02T10:01:00.154Z,96442.00
2019-02-02T10:03:31.336Z,96454.00
2019-02-02T10:06:01.353Z,96437.00
2019-02-02T10:08:31.983Z,96442.00
2019-02-02T10:11:01.992Z,96451.00
2019-02-02T10:13:32.355Z,96445.00
2019-02-02T10:16:02.925Z,96445.00
2019-02-02T10:18:32.751Z,96455.00
2019-02-02T10:21:04.336Z,96467.00
2019-02-02T10:23:34.547Z,96483.00
2019-02-02T10:26:04.394Z,96474.00
2019-02-02T10:28:34.554Z,96465.00
2019-02-02T10:31:04.767Z,96477.00
2019-02-02T10:33:35.320Z,96484.00
2019-02-02T10:36:05.295Z,96479.00
2019-02-02T10:38:35.315Z,96480.00
2019-02-02T10:41:05.392Z,96488.00
2019-02-02T10:43:35.330Z,96488.00
2019-02-02T10:46:05.104Z,96496.00
2019-02-02T10:48:35.148Z,96487.00
2019-02-02T10:51:05.044Z,96483.00
2019-02-02T10:53:34.877Z,96467.00
2019-02-02T10:56:04.669Z,96475.00
2019-02-02T10:58:34.195Z,96463.00
2019-02-02T11:01:04.198Z,96472.00
2019-02-02T11:03:34.175Z,96489.00
2019-02-02T11:06:03.703Z,96494.00
2019-02-02T11:08:33.888Z,96491.00
2019-02-02T11:11:04.207Z,96479.00
2019-02-02T11:13:34.019Z,96499.00
2019-02-02T11:16:04.073Z,96483.00
2019-02-02T11:18:34.077Z,96483.00
2019-02-02T11:21:04.131Z,96480.00
2019-02-02T11:23:34.362Z,96485.00
2019-02-02T11:26:04.251Z,96483.00
2019-02-02T11:28:34.126Z,96498.00
2019-02-02T11:31:03.790Z,96473.00
2019-02-02T11:33:33.634Z,96485.00
2019-02-02T11:36:03.677Z,96486.00
2019-02-02T11:38:33.658Z,96495.00
2019-02-02T11:41:03.511Z,96491.00
2019-02-02T11:43:33.300Z,96484.00
2019-02-02T11:46:03.068Z,96492.00
2019-02-02T11:48:32.911Z,96484.00
2019-02-02T11:51:02.903Z,96488.00
2019-02-02T11:53:32.935Z,96495.00
2019-02-02T11:56:04.490Z,96494.00
2019-02-02T11:58:34.198Z,96500.00
2019-02-02T12:01:04.230Z,96496.00
2019-02-02T12:03:34.158Z,96501.00
2019-02-02T12:06:04.549Z,96516.00
2019-02-02T12:08:34.650Z,96512.00
2019-02-02T12:11:04.730Z,96520.00
2019-02-02T12:13:34.397Z,96528.00
2019-02-02T12:16:04.494Z,96531.00
2019-02-02T12:18:34.127Z,96528.00
2019-02-02T12:21:04.072Z,96521.00
2019-02-02T12:23:33.972Z,96531.00
2019-02-02T12:26:03.792Z,96516.00
2019-02-02T12:28:33.934Z,96519.00
2019-02-02T12:31:03.974Z,96512.00
2019-02-02T12:33:34.010Z,96521.00
2019-02-02T12:36:03.867Z,96525.00
2019-02-02T12:38:33.874Z,96525.00
2019-02-02T12:41:04.123Z,96521.00
2019-02-02T12:43:34.772Z,96521.00
2019-02-02T12:46:04.850Z,96519.00
2019-02-02T12:48:34.657Z,96525.00
2019-02-02T12:51:06.103Z,96527.00
2019-02-02T12:53:35.928Z,96530.00
2019-02-02T12:56:05.844Z,96530.00
2019-02-02T12:58:35.654Z,96532.00
2019-02-02T13:01:05.725Z,96534.00
2019-02-02T13:03:35.603Z,96543.00
2019-02-02T13:06:05.715Z,96537.00
2019-02-02T13:08:35.620Z,96547.00
2019-02-02T13:11:05.341Z,96547.00
2019-02-02T13:13:34.931Z,96555.00
2019-02-02T13:16:06.204Z,96557.00
2019-02-02T13:18:36.498Z,96565.00
2019-02-02T13:21:06.338Z,96558.00
2019-02-02T13:23:36.237Z,96561.00
2019-02-02T13:26:06.250Z,96570.00
2019-02-02T13:28:35.962Z,96562.00
2019-02-02T13:31:05.996Z,96567.00
2019-02-02T13:33:35.892Z,96571.00
2019-02-02T13:36:05.829Z,96569.00
2019-02-02T13:38:35.666Z,96565.00
2019-02-02T13:41:05.657Z,96572.00
2019-02-02T13:43:35.349Z,96584.00
2019-02-02T13:46:05.428Z,96583.00
2019-02-02T13:48:35.223Z,96599.00
2019-02-02T13:51:06.879Z,96611.00
2019-02-02T13:53:37.702Z,96624.00
2019-02-02T13:56:07.524Z,96633.00
2019-02-02T13:58:37.766Z,96637.00
2019-02-02T14:01:07.953Z,96635.00
2019-02-02T14:03:37.977Z,96640.00
2019-02-02T14:06:09.115Z,96651.00
2019-02-02T14:08:38.875Z,96655.00
2019-02-02T14:11:08.657Z,96655.00
2019-02-02T14:13:39.701Z,96661.00
2019-02-02T14:16:09.628Z,96675.00
2019-02-02T14:18:39.939Z,96669.00
2019-02-02T14:21:10.758Z,96686.00
2019-02-02T14:23:40.887Z,96688.00
2019-02-02T14:26:10.706Z,96697.00
2019-02-02T14:28:40.504Z,96706.00
2019-02-02T14:31:10.197Z,96707.00
2019-02-02T14:33:40.139Z,96697.00
2019-02-02T14:36:09.934Z,96714.00
2019-02-02T14:38:39.790Z,96716.00
2019-02-02T14:41:09.540Z,96719.00
2019-02-02T14:43:39.523Z,96714.00
2019-02-02T14:46:09.311Z,96717.00
2019-02-02T14:48:39.758Z,96727.00
2019-02-02T14:51:09.428Z,96731.00
2019-02-02T14:53:39.389Z,96719.00
2019-02-02T14:56:09.237Z,96726.00
2019-02-02T14:58:39.389Z,96720.00
2019-02-02T15:01:09.303Z,96734.00
2019-02-02T15:03:39.244Z,96725.00
2019-02-02T15:06:09.723Z,96726.00
2019-02-02T15:08:39.667Z,96739.00
2019-02-02T15:11:09.723Z,96736.00
2019-02-02T15:13:39.683Z,96741.00
2019-02-02T15:16:10.546Z,96727.00
2019-02-02T15:18:40.345Z,96746.00
2019-02-02T15:21:10.177Z,96743.00
2019-02-02T15:23:40.073Z,96739.00
2019-02-02T15:26:10.110Z,96749.00
2019-02-02T15:28:40.052Z,96760.00
2019-02-02T15:31:09.839Z,96763.00
2019-02-02T15:33:39.689Z,96781.00
2019-02-02T15:36:09.454Z,96790.00
2019-02-02T15:38:39.424Z,96786.00
2019-02-02T15:41:09.194Z,96799.00
2019-02-02T15:43:38.792Z,96791.00
2019-02-02T15:46:08.507Z,96798.00
2019-02-02T15:48:38.204Z,96807.00
2019-02-02T15:51:08.045Z,96806.00
2019-02-02T15:53:38.379Z,96817.00
2019-02-02T15:56:08.117Z,96816.00
2019-02-02T15:58:37.717Z,96825.00
2019-02-02T16:01:07.501Z,96824.00
2019-02-02T16:03:49.171Z,96821.00
2019-02-02T16:06:08.737Z,96811.00
2019-02-02T16:08:38.651Z,96822.00
2019-02-02T16:11:08.477Z,96825.00
2019-02-02T16:14:48.865Z,96846.00
2019-02-02T16:17:19.066Z,96843.00
2019-02-02T16:19:48.912Z,96858.00
2019-02-02T16:22:18.985Z,96853.00
2019-02-02T16:24:48.585Z,96861.00
2019-02-02T16:27:18.542Z,96854.00
2019-02-02T16:29:48.614Z,96859.00
2019-02-02T16:32:20.009Z,96853.00
2019-02-02T16:34:49.913Z,96849.00
2019-02-02T16:37:19.650Z,96848.00
2019-02-02T16:39:49.534Z,96856.00
2019-02-02T16:42:19.767Z,96838.00
2019-02-02T16:44:49.580Z,96856.00
2019-02-02T16:47:20.110Z,96849.00
2019-02-02T16:49:50.318Z,96841.00
2019-02-02T16:52:20.278Z,96846.00
2019-02-02T16:54:50.338Z,96839.00
2019-02-02T16:57:20.062Z,96831.00
2019-02-02T16:59:50.219Z,96852.00
2019-02-02T17:02:20.003Z,96849.00
2019-02-02T17:04:49.732Z,96844.00
2019-02-02T17:07:19.532Z,96849.00
2019-02-02T17:09:49.133Z,96851.00
2019-02-02T17:12:19.173Z,96853.00
2019-02-02T17:14:49.193Z,96856.00
2019-02-02T17:17:19.114Z,96871.00
2019-02-02T17:19:48.983Z,96879.00
2019-02-02T17:22:18.730Z,96890.00
2019-02-02T17:24:50.204Z,96895.00
2019-02-02T17:27:20.072Z,96901.00
2019-02-02T17:29:49.929Z,96911.00
2019-02-02T17:32:19.707Z,96897.00
2019-02-02T17:34:49.792Z,96905.00
2019-02-02T17:37:20.261Z,96906.00
2019-02-02T17:39:50.199Z,96914.00
2019-02-02T17:42:20.120Z,96913.00
2019-02-02T17:44:50.317Z,96910.00
2019-02-02T17:47:22.470Z,96914.00
2019-02-02T17:49:52.399Z,96922.00
2019-02-02T17:52:22.320Z,96946.00
2019-02-02T17:54:52.265Z,96931.00
2019-02-02T17:57:22.143Z,96935.00
2019-02-02T17:59:52.057Z,96935.00
2019-02-02T18:02:22.052Z,96935.00
2019-02-02T18:04:52.173Z,96945.00
2019-02-02T18:07:21.944Z,96937.00
2019-02-02T18:09:51.832Z,96956.00
2019-02-02T18:12:22.791Z,96948.00
2019-02-02T18:14:54.071Z,96966.00
2019-02-02T18:17:23.972Z,96949.00
2019-02-02T18:19:54.233Z,96957.00
2019-02-02T18:22:24.375Z,96963.00
2019-02-02T18:24:54.396Z,96964.00
2019-02-02T18:27:25.316Z,96962.00
2019-02-02T18:29:55.917Z,96958.00
2019-02-02T18:32:25.906Z,96954.00
2019-02-02T18:34:55.879Z,96955.00
2019-02-02T18:37:25.830Z,96959.00
2019-02-02T18:39:56.249Z,96968.00
2019-02-02T18:42:26.354Z,96974.00
2019-02-02T18:44:58.738Z,96965.00
2019-02-02T18:47:28.613Z,96978.00
2019-02-02T18:49:58.932Z,96988.00
2019-02-02T18:52:29.362Z,96990.00
2019-02-02T18:55:00.211Z,96993.00
2019-02-02T18:57:30.653Z,97002.00
2019-02-02T19:00:06.026Z,97000.00
2019-02-02T19:02:34.494Z,97017.00
2019-02-02T19:05:04.688Z,97022.00
2019-02-02T19:07:34.801Z,97013.00
2019-02-02T19:10:05.983Z,97024.00
2019-02-02T19:12:37.393Z,97029.00
2019-02-02T19:15:08.749Z,97042.00
2019-02-02T19:17:39.178Z,97042.00
2019-02-02T19:20:12.153Z,97051.00
2019-02-02T19:22:42.139Z,97047.00
2019-02-02T19:25:13.051Z,97062.00
2019-02-02T19:27:44.322Z,97059.00
2019-02-02T19:30:26.948Z,97073.00
2019-02-02T19:32:57.605Z,97072.00
2019-02-02T19:35:28.457Z,97082.00
2019-02-02T19:38:00.261Z,97081.00
2019-02-02T19:40:30.570Z,97075.00
2019-02-02T19:43:02.816Z,97092.00
2019-02-02T19:45:33.676Z,97093.00
2019-02-02T19:48:04.490Z,97099.00
2019-02-02T19:50:35.789Z,97096.00
2019-02-02T19:53:07.386Z,97095.00
2019-02-02T19:55:38.208Z,97108.00
2019-02-02T19:58:09.346Z,97104.00
2019-02-02T20:00:40.495Z,97112.00
2019-02-02T20:03:11.468Z,97111.00
2019-02-02T20:05:43.959Z,97114.00
2019-02-02T20:08:15.163Z,97124.00
2019-02-02T20:10:46.407Z,97135.00
2019-02-02T20:13:19.506Z,97129.00
2019-02-02T20:15:49.884Z,97135.00
2019-02-02T20:18:21.184Z,97142.00
2019-02-02T20:20:52.861Z,97144.00
2019-02-02T20:23:24.046Z,97155.00
2019-02-02T20:25:56.987Z,97156.00
2019-02-02T20:28:27.110Z,97156.00
2019-02-02T20:30:57.455Z,97165.00
2019-02-02T20:33:28.056Z,97153.00
2019-02-02T20:36:00.011Z,97138.00
2019-02-02T20:38:30.877Z,97146.00
2019-02-02T20:41:01.793Z,97135.00
2019-02-02T20:43:32.343Z,97130.00
2019-02-02T20:46:03.598Z,97133.00
2019-02-02T20:48:34.519Z,97128.00
2019-02-02T20:51:06.588Z,97134.00
2019-02-02T20:53:37.083Z,97139.00
2019-02-02T20:56:08.370Z,97138.00
2019-02-02T20:58:38.402Z,97139.00
2019-02-02T21:01:08.709Z,97157.00
2019-02-02T21:03:39.396Z,97164.00
2019-02-02T21:06:10.171Z,97166.00
2019-02-02T21:08:40.813Z,97168.00
2019-02-02T21:11:11.109Z,97164.00
2019-02-02T21:13:41.510Z,97175.00
2019-02-02T21:16:12.407Z,97181.00
2019-02-02T21:18:42.981Z,97172.00
2019-02-02T21:21:13.515Z,97172.00
2019-02-02T21:23:45.103Z,97193.00
2019-02-02T21:26:15.951Z,97199.00
2019-02-02T21:28:50.611Z,97194.00
2019-02-02T21:31:19.558Z,97197.00
2019-02-02T21:33:49.739Z,97205.00
2019-02-02T21:36:20.181Z,97207.00
2019-02-02T21:38:50.591Z,97209.00
2019-02-02T21:41:20.781Z,97215.00
2019-02-02T21:43:50.554Z,97229.00
2019-02-02T21:46:20.758Z,97225.00
2019-02-02T21:48:50.820Z,97216.00
2019-02-02T21:51:20.901Z,97211.00
2019-02-02T21:53:51.103Z,97220.00
2019-02-02T21:56:22.329Z,97216.00
2019-02-02T21:58:53.477Z,97206.00
2019-02-02T22:01:24.224Z,97217.00
2019-02-02T22:03:54.262Z,97218.00
2019-02-02T22:06:24.597Z,97225.00
2019-02-02T22:08:54.285Z,97227.00
2019-02-02T22:11:24.306Z,97238.00
2019-02-02T22:13:54.323Z,97243.00
2019-02-02T22:16:24.527Z,97249.00
2019-02-02T22:18:54.766Z,97257.00
2019-02-02T22:21:24.667Z,97260.00
2019-02-02T22:23:55.060Z,97267.00
2019-02-02T22:26:25.246Z,97271.00
2019-02-02T22:28:57.946Z,97279.00
2019-02-02T22:31:27.923Z,97268.00
2019-02-02T22:33:57.928Z,97270.00
2019-02-02T22:36:29.009Z,97268.00
2019-02-02T22:38:58.890Z,97277.00
2019-02-02T22:41:28.708Z,97272.00
2019-02-02T22:43:58.628Z,97282.00
2019-02-02T22:46:28.455Z,97274.00
2019-02-02T22:48:58.240Z,97267.00
2019-02-02T22:51:28.166Z,97271.00
2019-02-02T22:53:58.072Z,97283.00
2019-02-02T22:56:28.021Z,97282.00
2019-02-02T22:58:58.262Z,97273.00
2019-02-02T23:01:40.370Z,97270.00
2019-02-02T23:04:56.103Z,97282.00
2019-02-02T23:08:16.406Z,97291.00
2019-02-02T23:11:27.174Z,97282.00
2019-02-02T23:14:25.541Z,97293.00
2019-02-02T23:16:55.445Z,97291.00
2019-02-02T23:19:26.495Z,97288.00
2019-02-02T23:21:56.516Z,97295.00
2019-02-02T23:24:26.534Z,97296.00
2019-02-02T23:26:58.147Z,97302.00
2019-02-02T23:29:28.451Z,97312.00
2019-02-02T23:31:58.655Z,97318.00
2019-02-02T23:34:28.711Z,97324.00
2019-02-02T23:36:58.760Z,97332.00
2019-02-02T23:39:28.401Z,97333.00
2019-02-02T23:41:58.212Z,97319.00
2019-02-02T23:44:28.113Z,97316.00
2019-02-02T23:46:58.250Z,97313.00
2019-02-02T23:49:27.846Z,97323.00
2019-02-02T23:51:57.779Z,97319.00
2019-02-02T23:54:27.509Z,97330.00
2019-02-02T23:56:57.405Z,97333.00
2019-02-02T23:59:27.227Z,97327.00
